Time;durP1;ratioP1;P1;durP2;ratioP2;P2;SDS_P1;SDS_P2;PMS_P1;PMS_P2;Temp;Humidity;BMP_temperature;BMP_pressure;BME280_temperature;BME280_humidity;BME280_pressure;Samples;Min_cycle;Max_cycle;Signal;HPM_P1;HPM_P2
2022/03/16 00:00:27;;;;;;;58.60;36.20;;;5.80;99.90;;;;;;4986258;28;20058;-70
2022/03/16 00:02:53;;;;;;;50.88;33.22;;;5.70;99.90;;;;;;4989210;28;20051;-71
2022/03/16 00:05:18;;;;;;;45.05;28.27;;;5.60;99.90;;;;;;4984191;28;20049;-70
2022/03/16 00:07:44;;;;;;;48.92;31.35;;;5.50;99.90;;;;;;4990714;28;20043;-70
2022/03/16 00:10:11;;;;;;;56.92;32.72;;;5.40;99.90;;;;;;4985725;28;20086;-70
2022/03/16 00:12:38;;;;;;;58.40;34.28;;;5.50;99.90;;;;;;4985129;28;20046;-70
2022/03/16 00:15:04;;;;;;;56.95;34.17;;;5.40;99.90;;;;;;4985489;28;20050;-70
2022/03/16 00:17:30;;;;;;;65.75;37.35;;;5.70;99.90;;;;;;4990073;28;20059;-70
2022/03/16 00:19:55;;;;;;;60.03;37.20;;;5.60;99.90;;;;;;4986430;28;20047;-70
2022/03/16 00:22:21;;;;;;;59.67;37.25;;;5.80;99.90;;;;;;4988777;28;20054;-67
2022/03/16 00:24:47;;;;;;;56.78;35.92;;;5.80;99.90;;;;;;4987015;28;20034;-68
2022/03/16 00:27:13;;;;;;;62.75;36.90;;;6.00;99.90;;;;;;4985772;28;20058;-67
2022/03/16 00:29:38;;;;;;;59.97;34.95;;;5.90;99.90;;;;;;4985922;28;20110;-68
2022/03/16 00:32:05;;;;;;;57.65;34.78;;;6.10;99.90;;;;;;4989249;28;20048;-68
2022/03/16 00:34:31;;;;;;;64.70;37.90;;;6.10;99.90;;;;;;4988818;28;20057;-67
2022/03/16 00:36:57;;;;;;;66.30;39.28;;;6.20;99.90;;;;;;4988668;28;20049;-67
2022/03/16 00:39:23;;;;;;;71.97;38.28;;;6.20;99.90;;;;;;4989016;28;20054;-68
2022/03/16 00:41:49;;;;;;;64.93;36.50;;;6.20;99.90;;;;;;4988967;28;20042;-67
2022/03/16 00:44:14;;;;;;;68.88;39.22;;;6.00;99.90;;;;;;4986762;28;20053;-67
2022/03/16 00:46:41;;;;;;;60.00;36.00;;;6.20;99.90;;;;;;4985330;28;20042;-68
2022/03/16 00:49:06;;;;;;;54.17;33.42;;;6.20;99.90;;;;;;4987089;28;20050;-68
2022/03/16 00:51:32;;;;;;;45.90;29.70;;;5.80;99.90;;;;;;4985528;28;20086;-68
2022/03/16 00:53:58;;;;;;;43.97;27.02;;;5.80;99.90;;;;;;4985810;28;20101;-68
2022/03/16 00:56:24;;;;;;;41.72;27.88;;;5.50;99.90;;;;;;4988610;28;20054;-68
2022/03/16 00:58:50;;;;;;;44.40;29.77;;;5.40;99.90;;;;;;4984967;28;20086;-68
2022/03/16 01:01:15;;;;;;;52.70;33.42;;;5.40;99.90;;;;;;4989157;28;20074;-68
2022/03/16 01:03:41;;;;;;;59.47;38.47;;;5.10;99.90;;;;;;4985703;28;20134;-68
2022/03/16 01:06:12;;;;;;;72.40;42.55;;;5.30;99.90;;;;;;4990108;28;20050;-68
2022/03/16 01:08:40;;;;;;;66.68;41.92;;;5.20;99.90;;;;;;4991171;28;20050;-68
2022/03/16 01:11:06;;;;;;;64.57;40.63;;;5.30;99.90;;;;;;4994929;28;20050;-68
2022/03/16 01:13:31;;;;;;;60.75;38.40;;;5.40;99.90;;;;;;4990005;28;20510;-68
2022/03/16 01:15:57;;;;;;;67.53;39.28;;;5.20;99.90;;;;;;4986245;28;20098;-67
2022/03/16 01:18:23;;;;;;;69.22;38.47;;;5.30;99.90;;;;;;4982769;28;20101;-68
2022/03/16 01:20:48;;;;;;;63.95;37.17;;;5.40;99.90;;;;;;4990558;28;20069;-68
2022/03/16 01:23:14;;;;;;;58.20;37.10;;;5.50;99.90;;;;;;4989200;28;20121;-68
2022/03/16 01:25:40;;;;;;;56.05;35.10;;;5.40;99.90;;;;;;4989533;28;20055;-67
2022/03/16 01:28:06;;;;;;;56.72;34.10;;;5.50;99.90;;;;;;4992717;28;20047;-68
2022/03/16 01:30:31;;;;;;;61.22;36.53;;;5.80;99.90;;;;;;4992008;28;20078;-68
2022/03/16 01:32:57;;;;;;;61.20;35.40;;;5.60;99.90;;;;;;4990489;28;20049;-68
2022/03/16 01:35:23;;;;;;;63.22;37.40;;;5.70;99.90;;;;;;4993681;28;20417;-68
2022/03/16 01:37:49;;;;;;;61.85;35.63;;;5.70;99.90;;;;;;4989817;28;20054;-68
2022/03/16 01:40:14;;;;;;;61.67;36.50;;;5.90;99.90;;;;;;4989383;28;20043;-68
2022/03/16 01:42:41;;;;;;;54.47;33.25;;;5.90;99.90;;;;;;4989518;28;20055;-68
2022/03/16 01:45:07;;;;;;;59.92;37.10;;;6.20;99.90;;;;;;4989928;28;20166;-68
2022/03/16 01:47:33;;;;;;;63.22;36.90;;;6.20;99.90;;;;;;4988942;28;20057;-68
2022/03/16 01:49:59;;;;;;;65.53;35.42;;;6.10;99.90;;;;;;4989219;28;20050;-68
2022/03/16 01:52:28;;;;;;;60.65;36.17;;;6.20;99.90;;;;;;4987452;28;20057;-68
2022/03/16 01:54:55;;;;;;;60.97;36.00;;;6.10;99.90;;;;;;4987427;28;20058;-68
2022/03/16 01:57:21;;;;;;;65.30;37.58;;;6.30;99.90;;;;;;4988583;28;20074;-67
2022/03/16 01:59:47;;;;;;;67.75;38.03;;;6.20;99.90;;;;;;4988630;28;20078;-67
2022/03/16 02:02:13;;;;;;;68.40;39.95;;;6.40;99.90;;;;;;4989946;28;20050;-67
2022/03/16 02:04:41;;;;;;;67.65;38.47;;;6.40;99.90;;;;;;4988634;28;20130;-67
2022/03/16 02:07:07;;;;;;;68.93;37.60;;;6.30;99.90;;;;;;4989017;28;20127;-67
2022/03/16 02:09:33;;;;;;;56.35;32.75;;;5.90;99.90;;;;;;4987828;28;20059;-67
2022/03/16 02:11:59;;;;;;;51.72;32.08;;;5.70;99.90;;;;;;4992015;28;20046;-67
2022/03/16 02:14:25;;;;;;;42.05;28.83;;;5.50;99.90;;;;;;4989614;28;20047;-68
2022/03/16 02:16:51;;;;;;;52.50;31.30;;;5.20;99.90;;;;;;4993770;28;20037;-68
2022/03/16 02:19:17;;;;;;;49.35;29.30;;;5.20;99.90;;;;;;4990898;28;20046;-68
2022/03/16 02:21:46;;;;;;;45.63;28.58;;;4.90;99.90;;;;;;4990346;28;20047;-68
2022/03/16 02:24:12;;;;;;;48.60;29.48;;;4.70;99.90;;;;;;4995493;28;20046;-69
2022/03/16 02:26:40;;;;;;;47.70;28.83;;;4.70;99.90;;;;;;4995419;28;20506;-70
2022/03/16 02:29:06;;;;;;;52.47;30.25;;;4.60;99.90;;;;;;4983088;28;20062;-70
2022/03/16 02:31:31;;;;;;;162.27;28.42;;;4.70;99.90;;;;;;4990730;28;20050;-70
2022/03/16 02:33:57;;;;;;;215.38;28.35;;;4.50;99.90;;;;;;4970655;28;20046;-70
2022/03/16 02:36:23;;;;;;;130.95;25.15;;;4.40;99.90;;;;;;4987505;28;20499;-70
2022/03/16 02:38:49;;;;;;;134.90;22.45;;;4.30;99.90;;;;;;4987198;28;20061;-70
2022/03/16 02:41:15;;;;;;;116.00;23.48;;;4.20;99.90;;;;;;4974771;28;20042;-70
2022/03/16 02:43:40;;;;;;;138.93;23.38;;;4.10;99.90;;;;;;4987033;28;20055;-70
2022/03/16 02:46:06;;;;;;;164.13;22.52;;;3.80;99.90;;;;;;4987646;28;20047;-70
2022/03/16 02:48:32;;;;;;;146.45;20.60;;;3.70;99.90;;;;;;4991018;28;20046;-68
2022/03/16 02:50:58;;;;;;;46.50;17.98;;;3.60;99.90;;;;;;4990330;28;20034;-69
2022/03/16 02:53:24;;;;;;;161.98;21.58;;;3.40;99.90;;;;;;4990340;28;20459;-70
2022/03/16 02:55:51;;;;;;;192.43;21.70;;;3.30;99.90;;;;;;4990511;28;20051;-68
2022/03/16 02:58:18;;;;;;;132.68;20.58;;;3.20;99.90;;;;;;4989614;28;20047;-67
2022/03/16 03:00:44;;;;;;;147.65;19.80;;;3.10;99.90;;;;;;4983705;28;20114;-67
2022/03/16 03:03:10;;;;;;;69.20;17.70;;;3.20;99.90;;;;;;4984373;28;20153;-68
2022/03/16 03:05:36;;;;;;;183.00;22.77;;;3.20;99.90;;;;;;4986039;28;20058;-67
2022/03/16 03:08:02;;;;;;;205.05;23.02;;;3.20;99.90;;;;;;4984184;28;20054;-69
2022/03/16 03:10:28;;;;;;;109.88;22.23;;;3.00;99.90;;;;;;4987652;28;20711;-70
2022/03/16 03:12:54;;;;;;;244.93;25.38;;;3.00;99.90;;;;;;4986578;28;20522;-70
2022/03/16 03:15:20;;;;;;;144.57;24.02;;;3.10;99.90;;;;;;4987652;28;20051;-70
2022/03/16 03:17:46;;;;;;;286.70;30.25;;;3.10;99.90;;;;;;4986339;28;20156;-70
2022/03/16 03:20:12;;;;;;;322.20;32.65;;;3.10;99.90;;;;;;4986442;28;20067;-70
2022/03/16 03:22:39;;;;;;;243.05;27.15;;;2.90;99.90;;;;;;4990803;28;20049;-70
2022/03/16 03:25:09;;;;;;;181.50;27.63;;;3.10;99.90;;;;;;4987081;28;20078;-70
2022/03/16 03:27:34;;;;;;;168.90;25.73;;;3.10;99.90;;;;;;4985955;28;20057;-70
2022/03/16 03:30:00;;;;;;;154.32;24.23;;;3.20;99.90;;;;;;4987252;28;20042;-70
2022/03/16 03:32:26;;;;;;;339.60;31.45;;;3.20;99.90;;;;;;4955730;28;20090;-70
2022/03/16 03:34:53;;;;;;;174.38;24.67;;;2.90;99.90;;;;;;4986059;28;20073;-70
2022/03/16 03:37:19;;;;;;;288.27;28.40;;;2.90;99.90;;;;;;4991103;28;20053;-70
2022/03/16 03:39:45;;;;;;;276.27;27.55;;;3.10;99.90;;;;;;4986792;28;20138;-70
2022/03/16 03:42:11;;;;;;;274.85;28.60;;;3.00;99.90;;;;;;4991715;28;20546;-70
2022/03/16 03:44:38;;;;;;;304.67;28.75;;;2.70;99.90;;;;;;4986526;28;20403;-68
2022/03/16 03:47:05;;;;;;;194.65;25.27;;;2.70;99.90;;;;;;4988752;28;20038;-69
2022/03/16 03:49:33;;;;;;;221.13;26.80;;;2.80;99.90;;;;;;4986562;28;20055;-68
2022/03/16 03:51:58;;;;;;;94.53;22.25;;;2.80;99.90;;;;;;4988464;28;20500;-67
2022/03/16 03:54:24;;;;;;;219.50;25.95;;;2.90;99.90;;;;;;4983407;28;20074;-67
2022/03/16 03:56:50;;;;;;;201.75;24.02;;;3.00;99.90;;;;;;4992233;28;20082;-67
2022/03/16 03:59:15;;;;;;;273.63;27.65;;;2.80;99.90;;;;;;4986022;28;20137;-67
2022/03/16 04:01:41;;;;;;;352.50;30.98;;;2.80;99.90;;;;;;4987637;28;20047;-67
2022/03/16 04:04:07;;;;;;;262.27;27.50;;;2.90;99.90;;;;;;4985641;28;20047;-67
2022/03/16 04:06:33;;;;;;;294.58;28.42;;;2.80;99.90;;;;;;4987790;28;20102;-67
2022/03/16 04:08:59;;;;;;;236.63;26.08;;;2.70;99.90;;;;;;4989037;28;20043;-68
2022/03/16 04:11:24;;;;;;;208.30;25.38;;;2.70;99.90;;;;;;4986392;28;20043;-69
2022/03/16 04:13:50;;;;;;;202.18;26.92;;;2.70;99.90;;;;;;4988851;28;20050;-70
2022/03/16 04:16:16;;;;;;;182.63;26.35;;;2.70;99.90;;;;;;4990180;28;20136;-70
2022/03/16 04:18:42;;;;;;;118.75;23.92;;;2.60;99.90;;;;;;4984724;28;20074;-70
2022/03/16 04:21:07;;;;;;;144.05;24.48;;;2.60;99.90;;;;;;4991201;28;20053;-70
2022/03/16 04:23:33;;;;;;;180.10;26.17;;;2.80;99.90;;;;;;4989386;28;20078;-70
2022/03/16 04:25:59;;;;;;;131.15;24.02;;;2.70;99.90;;;;;;4985896;28;20096;-70
2022/03/16 04:28:25;;;;;;;162.68;25.38;;;2.60;99.90;;;;;;4992398;28;20054;-70
2022/03/16 04:30:51;;;;;;;111.00;22.38;;;2.60;99.90;;;;;;4986419;28;20101;-70
2022/03/16 04:33:16;;;;;;;203.43;27.00;;;2.60;99.90;;;;;;4985781;28;20035;-68
2022/03/16 04:35:42;;;;;;;173.63;27.02;;;2.50;99.90;;;;;;4988170;28;20052;-68
2022/03/16 04:38:08;;;;;;;268.98;31.27;;;2.60;99.90;;;;;;4984645;28;20074;-68
2022/03/16 04:40:34;;;;;;;313.27;33.13;;;2.60;99.90;;;;;;4984854;28;20042;-68
2022/03/16 04:43:00;;;;;;;195.95;29.50;;;2.70;99.90;;;;;;4986556;28;20055;-68
2022/03/16 04:45:26;;;;;;;120.00;27.60;;;2.80;99.90;;;;;;4986249;28;20041;-68
2022/03/16 04:47:52;;;;;;;132.98;31.90;;;3.00;99.90;;;;;;4984476;28;20061;-68
2022/03/16 04:50:18;;;;;;;101.30;30.40;;;3.00;99.90;;;;;;4987319;28;20062;-68
2022/03/16 04:52:48;;;;;;;192.75;34.63;;;3.20;99.90;;;;;;4986639;28;20065;-68
2022/03/16 04:55:14;;;;;;;87.03;29.77;;;3.20;99.90;;;;;;4987649;28;20097;-68
2022/03/16 04:57:41;;;;;;;158.60;34.05;;;3.50;99.90;;;;;;4983953;28;20058;-68
2022/03/16 05:00:07;;;;;;;80.72;30.55;;;3.40;99.90;;;;;;4986794;28;20050;-68
2022/03/16 05:02:33;;;;;;;112.78;29.70;;;3.70;99.90;;;;;;4989290;28;20058;-68
2022/03/16 05:04:59;;;;;;;79.50;28.85;;;3.70;99.90;;;;;;4970922;28;20556;-68
2022/03/16 05:07:25;;;;;;;174.10;31.63;;;3.70;99.90;;;;;;4988165;28;20071;-68
2022/03/16 05:09:51;;;;;;;138.80;32.28;;;3.90;99.90;;;;;;4985846;28;20104;-68
2022/03/16 05:12:16;;;;;;;135.55;30.08;;;4.00;99.90;;;;;;4984923;28;20066;-68
2022/03/16 05:14:42;;;;;;;245.05;34.40;;;3.80;99.90;;;;;;4989183;28;20046;-68
2022/03/16 05:17:08;;;;;;;175.35;31.83;;;3.80;99.90;;;;;;4985541;28;20126;-68
2022/03/16 05:19:34;;;;;;;91.55;28.55;;;3.90;99.90;;;;;;4987258;28;20047;-68
2022/03/16 05:22:00;;;;;;;209.18;33.70;;;4.00;99.90;;;;;;4986577;28;20132;-68
2022/03/16 05:24:26;;;;;;;66.55;28.13;;;4.00;99.90;;;;;;4990524;28;20038;-68
2022/03/16 05:26:52;;;;;;;79.80;29.10;;;3.90;99.90;;;;;;4987208;28;20074;-68
2022/03/16 05:29:18;;;;;;;197.40;32.78;;;4.00;99.90;;;;;;4987452;28;20050;-68
2022/03/16 05:31:44;;;;;;;108.60;31.50;;;4.00;99.90;;;;;;4989112;28;20534;-68
2022/03/16 05:34:10;;;;;;;149.48;32.53;;;3.90;99.90;;;;;;4985117;28;20039;-68
2022/03/16 05:36:36;;;;;;;209.68;31.25;;;3.90;99.90;;;;;;4968180;28;20062;-68
2022/03/16 05:39:04;;;;;;;148.10;26.70;;;3.80;99.90;;;;;;4988510;28;20515;-68
2022/03/16 05:41:30;;;;;;;120.82;25.40;;;3.70;99.90;;;;;;4986673;28;20125;-68
2022/03/16 05:43:56;;;;;;;124.43;26.15;;;3.60;99.90;;;;;;4970182;28;20538;-68
2022/03/16 05:46:21;;;;;;;177.80;27.95;;;3.40;99.90;;;;;;4986581;28;20050;-68
2022/03/16 05:48:47;;;;;;;120.28;26.98;;;3.30;99.90;;;;;;4985346;28;20047;-68
2022/03/16 05:51:13;;;;;;;187.23;29.17;;;3.20;99.90;;;;;;4987153;28;20077;-68
2022/03/16 05:53:39;;;;;;;79.15;23.85;;;3.30;99.90;;;;;;4988883;28;20034;-68
2022/03/16 05:56:05;;;;;;;75.40;25.13;;;3.30;99.90;;;;;;4990436;28;20080;-69
2022/03/16 05:58:30;;;;;;;78.28;24.52;;;3.30;99.90;;;;;;4994665;28;20063;-68
2022/03/16 06:00:56;;;;;;;71.75;25.85;;;3.30;99.90;;;;;;4992517;28;20050;-68
2022/03/16 06:03:22;;;;;;;49.25;27.67;;;3.10;99.90;;;;;;4971286;28;20086;-68
2022/03/16 06:05:48;;;;;;;63.28;26.58;;;3.20;99.90;;;;;;4993480;28;20030;-68
2022/03/16 06:08:13;;;;;;;97.80;28.25;;;3.40;99.90;;;;;;4987263;28;20077;-68
2022/03/16 06:10:39;;;;;;;91.15;27.73;;;3.40;99.90;;;;;;4991127;28;20050;-68
2022/03/16 06:13:05;;;;;;;94.35;28.92;;;3.40;99.90;;;;;;4988365;28;20047;-68
2022/03/16 06:15:44;;;;;;;92.47;30.05;;;3.40;99.90;;;;;;4989876;28;20046;-68
2022/03/16 06:18:10;;;;;;;55.22;27.13;;;3.40;99.90;;;;;;4989769;28;20138;-68
2022/03/16 06:20:37;;;;;;;82.50;29.13;;;3.30;99.90;;;;;;4987922;28;20053;-68
2022/03/16 06:23:07;;;;;;;39.35;26.58;;;3.30;99.90;;;;;;4986834;28;20567;-68
2022/03/16 06:25:33;;;;;;;38.58;26.75;;;3.40;99.90;;;;;;4988250;28;20057;-68
2022/03/16 06:27:59;;;;;;;76.40;27.92;;;3.70;99.90;;;;;;4992242;28;20042;-68
2022/03/16 06:30:25;;;;;;;44.30;27.33;;;3.70;99.90;;;;;;4989592;28;20057;-68
2022/03/16 06:32:51;;;;;;;37.40;26.27;;;3.70;99.90;;;;;;4953635;28;20055;-68
2022/03/16 06:35:17;;;;;;;36.90;26.35;;;3.90;99.90;;;;;;4988015;28;20031;-68
2022/03/16 06:37:44;;;;;;;36.35;26.73;;;3.90;99.90;;;;;;4986926;28;20086;-68
2022/03/16 06:40:11;;;;;;;39.58;25.08;;;4.10;99.90;;;;;;4990602;28;20050;-68
2022/03/16 06:42:51;;;;;;;41.33;24.83;;;4.10;99.90;;;;;;4990819;28;20110;-68
2022/03/16 06:45:18;;;;;;;39.95;27.23;;;4.10;99.90;;;;;;4988173;28;20046;-68
2022/03/16 06:47:44;;;;;;;38.88;26.08;;;4.10;99.90;;;;;;4988840;28;20078;-69
2022/03/16 06:50:10;;;;;;;37.67;26.35;;;4.30;99.90;;;;;;4994037;28;20042;-68
2022/03/16 06:52:36;;;;;;;41.97;28.70;;;4.20;99.90;;;;;;4990647;28;20055;-69
2022/03/16 06:55:01;;;;;;;42.63;29.67;;;4.30;99.90;;;;;;4934061;28;20081;-67
2022/03/16 06:57:27;;;;;;;39.70;28.65;;;4.10;99.90;;;;;;4986412;28;20098;-68
2022/03/16 06:59:53;;;;;;;39.05;27.88;;;4.40;99.90;;;;;;4987719;28;20499;-69
2022/03/16 07:02:18;;;;;;;41.85;28.30;;;4.40;99.90;;;;;;4986830;28;20067;-71
2022/03/16 07:04:44;;;;;;;40.50;27.83;;;4.50;99.90;;;;;;4959643;28;20066;-69
2022/03/16 07:07:10;;;;;;;38.75;28.65;;;4.60;99.90;;;;;;4974095;28;20050;-68
2022/03/16 07:09:35;;;;;;;42.58;29.17;;;4.60;99.90;;;;;;4990447;28;20050;-68
2022/03/16 07:12:01;;;;;;;46.88;32.22;;;4.60;99.90;;;;;;4972594;28;20048;-67
2022/03/16 07:14:32;;;;;;;48.25;33.83;;;4.60;99.90;;;;;;4999257;28;20448;-68
2022/03/16 07:17:00;;;;;;;49.53;35.35;;;4.50;99.90;;;;;;4989388;28;20175;-67
2022/03/16 07:19:26;;;;;;;53.05;34.38;;;4.60;99.90;;;;;;4994139;28;20173;-66
2022/03/16 07:21:51;;;;;;;47.08;33.15;;;4.60;99.90;;;;;;4953219;28;20047;-66
2022/03/16 07:24:17;;;;;;;46.95;33.08;;;4.70;99.90;;;;;;4990971;28;20050;-66
2022/03/16 07:26:44;;;;;;;49.38;34.78;;;4.80;99.90;;;;;;4979920;28;20060;-66
2022/03/16 07:29:09;;;;;;;47.53;32.42;;;4.80;99.90;;;;;;4979675;28;20046;-66
2022/03/16 07:31:35;;;;;;;44.03;30.23;;;4.50;99.90;;;;;;4982235;28;20558;-66
2022/03/16 07:34:01;;;;;;;47.53;32.85;;;4.70;99.90;;;;;;4990740;28;20055;-66
2022/03/16 07:36:27;;;;;;;54.25;37.33;;;4.70;99.90;;;;;;4978612;28;20046;-67
2022/03/16 07:38:53;;;;;;;51.05;32.85;;;4.80;99.90;;;;;;4978164;28;20042;-67
2022/03/16 07:41:19;;;;;;;47.88;33.03;;;4.70;99.90;;;;;;4976514;28;20055;-67
2022/03/16 07:43:45;;;;;;;44.80;32.72;;;4.60;99.90;;;;;;4979855;28;20070;-67
2022/03/16 07:46:11;;;;;;;48.75;34.05;;;4.80;99.90;;;;;;4958323;28;20081;-67
2022/03/16 07:48:38;;;;;;;54.35;37.80;;;4.90;99.90;;;;;;4983757;28;20035;-67
2022/03/16 07:51:04;;;;;;;50.92;37.75;;;5.00;99.90;;;;;;4975225;28;20495;-77
2022/03/16 07:53:30;;;;;;;59.67;41.10;;;5.10;99.90;;;;;;4962198;28;20070;-69
2022/03/16 07:55:57;;;;;;;59.42;40.25;;;5.00;99.90;;;;;;4945753;28;20047;-69
2022/03/16 07:58:23;;;;;;;54.22;35.42;;;5.30;99.90;;;;;;4967134;28;20051;-70
2022/03/16 08:00:49;;;;;;;56.30;36.38;;;5.40;99.90;;;;;;4977291;28;20097;-69
2022/03/16 08:03:15;;;;;;;57.05;38.13;;;5.50;99.90;;;;;;4967578;28;20082;-69
2022/03/16 08:05:40;;;;;;;52.47;35.78;;;5.40;99.90;;;;;;4963436;28;20366;-69
2022/03/16 08:08:06;;;;;;;54.85;35.63;;;5.70;99.90;;;;;;4969570;28;20057;-69
2022/03/16 08:10:32;;;;;;;55.03;35.67;;;5.70;99.90;;;;;;4980154;28;20043;-69
2022/03/16 08:12:58;;;;;;;55.85;37.95;;;5.90;99.90;;;;;;4953863;28;20050;-69
2022/03/16 08:15:23;;;;;;;56.17;37.15;;;6.00;99.90;;;;;;4981382;28;20125;-70
2022/03/16 08:17:49;;;;;;;56.17;38.50;;;6.00;99.90;;;;;;4974688;28;20616;-69
2022/03/16 08:20:15;;;;;;;57.65;38.55;;;6.10;99.90;;;;;;4980991;28;20058;-69
2022/03/16 08:22:41;;;;;;;59.60;39.42;;;6.00;99.90;;;;;;4953562;28;20061;-69
2022/03/16 08:25:09;;;;;;;58.80;38.58;;;6.30;99.90;;;;;;4981048;28;20093;-70
2022/03/16 08:27:37;;;;;;;60.05;38.92;;;6.40;99.90;;;;;;4966470;28;20078;-70
2022/03/16 08:30:04;;;;;;;60.42;40.88;;;6.40;99.90;;;;;;4993313;28;20082;-70
2022/03/16 08:32:30;;;;;;;64.28;41.75;;;6.40;99.90;;;;;;4948787;28;20109;-70
2022/03/16 08:34:56;;;;;;;66.47;41.45;;;6.50;99.90;;;;;;4961248;28;20054;-70
2022/03/16 08:37:21;;;;;;;64.18;42.35;;;6.60;99.90;;;;;;4972431;28;20072;-70
2022/03/16 08:39:48;;;;;;;70.22;40.70;;;6.60;99.90;;;;;;4991507;28;20070;-70
2022/03/16 08:42:14;;;;;;;58.20;38.00;;;6.70;99.90;;;;;;4972290;28;20101;-69
2022/03/16 08:44:42;;;;;;;60.45;37.70;;;6.90;99.90;;;;;;4984980;28;20110;-69
2022/03/16 08:47:10;;;;;;;62.05;39.22;;;7.20;99.90;;;;;;4972794;28;20492;-69
2022/03/16 08:49:37;;;;;;;58.65;39.42;;;7.10;99.90;;;;;;4981115;28;20062;-69
2022/03/16 08:52:05;;;;;;;56.88;38.30;;;7.30;99.90;;;;;;4952403;28;20054;-69
2022/03/16 08:54:31;;;;;;;58.83;37.78;;;7.50;99.90;;;;;;4976523;28;20622;-69
2022/03/16 08:56:56;;;;;;;59.50;40.15;;;7.40;99.90;;;;;;4975738;28;20087;-69
2022/03/16 08:59:23;;;;;;;57.50;37.58;;;7.60;99.90;;;;;;4983616;28;20057;-69
2022/03/16 09:01:50;;;;;;;56.03;38.72;;;7.60;99.90;;;;;;4972690;28;20057;-69
2022/03/16 09:04:16;;;;;;;59.40;36.42;;;7.90;99.90;;;;;;4978685;28;20051;-70
2022/03/16 09:06:43;;;;;;;51.78;35.85;;;8.00;99.90;;;;;;4970745;28;20054;-70
2022/03/16 09:09:09;;;;;;;51.42;34.78;;;8.30;99.90;;;;;;4975820;28;20244;-70
2022/03/16 09:11:35;;;;;;;52.45;34.58;;;8.40;99.90;;;;;;4975313;28;20050;-68
2022/03/16 09:14:02;;;;;;;50.38;32.55;;;8.60;99.90;;;;;;4989448;28;20047;-68
2022/03/16 09:16:28;;;;;;;44.38;30.27;;;8.60;99.90;;;;;;4972875;28;20539;-68
2022/03/16 09:18:54;;;;;;;41.58;28.85;;;8.70;99.90;;;;;;4983192;28;20131;-68
2022/03/16 09:21:20;;;;;;;41.75;27.98;;;8.80;99.90;;;;;;4968681;28;20286;-70
2022/03/16 09:23:47;;;;;;;45.35;29.58;;;9.10;99.90;;;;;;4975015;28;20125;-69
2022/03/16 09:26:12;;;;;;;47.88;28.75;;;9.10;99.90;;;;;;4983584;28;20093;-69
2022/03/16 09:28:38;;;;;;;39.65;27.77;;;9.20;99.90;;;;;;4972611;28;20153;-69
2022/03/16 09:31:04;;;;;;;38.13;27.48;;;9.30;99.90;;;;;;4988365;28;20049;-69
2022/03/16 09:33:30;;;;;;;40.38;28.23;;;9.30;99.90;;;;;;4986953;28;20054;-70
2022/03/16 09:35:56;;;;;;;36.17;24.00;;;9.40;99.90;;;;;;4966023;28;20531;-70
2022/03/16 09:38:22;;;;;;;36.15;25.40;;;9.60;99.90;;;;;;4986289;28;20062;-70
2022/03/16 09:40:53;;;;;;;30.15;22.50;;;9.60;99.90;;;;;;4979862;28;20047;-70
2022/03/16 09:43:20;;;;;;;32.97;22.85;;;9.80;99.90;;;;;;4974057;28;20121;-70
2022/03/16 09:46:21;;;;;;;31.20;22.10;;;9.80;99.90;;;;;;4986170;28;20038;-69
2022/03/16 09:48:47;;;;;;;27.58;20.98;;;10.00;99.90;;;;;;4973028;28;20046;-68
2022/03/16 09:51:16;;;;;;;26.45;19.40;;;10.20;99.90;;;;;;4968652;28;20065;-68
2022/03/16 09:53:42;;;;;;;26.35;18.63;;;10.30;99.90;;;;;;4980372;28;20058;-69
2022/03/16 09:56:09;;;;;;;22.73;16.42;;;10.40;99.90;;;;;;4953637;28;20051;-69
2022/03/16 09:58:35;;;;;;;23.05;16.05;;;10.70;99.90;;;;;;4971710;28;20077;-68
2022/03/16 10:01:05;;;;;;;23.13;14.73;;;10.80;99.90;;;;;;5003713;28;20073;-67
2022/03/16 10:03:32;;;;;;;19.55;15.63;;;11.00;99.90;;;;;;4979939;28;20058;-67
2022/03/16 10:05:58;;;;;;;20.15;13.52;;;11.00;99.90;;;;;;4987771;28;20093;-66
2022/03/16 10:08:37;;;;;;;19.58;13.52;;;11.30;99.90;;;;;;4971286;28;20084;-67
2022/03/16 10:14:11;;;;;;;17.08;12.77;;;11.40;99.90;;;;;;4985430;28;20085;-69
2022/03/16 10:19:23;;;;;;;19.33;13.23;;;11.50;99.90;;;;;;4953426;28;20061;-66
2022/03/16 10:22:00;;;;;;;18.25;13.65;;;11.60;99.90;;;;;;4973409;28;20043;-66
2022/03/16 10:24:28;;;;;;;20.30;14.43;;;11.60;99.90;;;;;;4980255;28;20080;-66
2022/03/16 10:26:55;;;;;;;22.55;14.77;;;11.70;99.90;;;;;;4975333;28;20061;-67
2022/03/16 10:29:26;;;;;;;21.65;14.95;;;11.70;99.90;;;;;;4984579;28;20055;-67
2022/03/16 10:32:05;;;;;;;21.55;14.50;;;11.80;99.90;;;;;;4972795;28;20042;-67
2022/03/16 10:34:32;;;;;;;23.10;15.18;;;11.90;99.90;;;;;;4994486;28;20519;-67
2022/03/16 10:37:09;;;;;;;24.88;15.10;;;12.00;99.90;;;;;;4976807;28;20062;-67
2022/03/16 10:39:36;;;;;;;21.98;13.95;;;12.10;99.90;;;;;;4983711;28;20054;-67
2022/03/16 10:47:55;;;;;;;25.05;15.05;;;12.40;99.90;;;;;;4971374;28;20113;-67
2022/03/16 10:50:22;;;;;;;25.23;15.98;;;12.50;99.90;;;;;;4978411;28;20080;-67
2022/03/16 10:52:50;;;;;;;25.88;16.08;;;12.50;99.90;;;;;;4973285;28;20054;-67
2022/03/16 10:55:19;;;;;;;22.50;14.65;;;12.50;99.90;;;;;;4973771;28;20651;-66
2022/03/16 10:57:48;;;;;;;23.13;15.43;;;12.60;99.90;;;;;;4974329;28;20050;-66
2022/03/16 11:00:16;;;;;;;23.83;15.10;;;12.70;99.90;;;;;;4994194;28;20034;-70
2022/03/16 11:02:44;;;;;;;26.65;14.50;;;12.70;99.90;;;;;;4972085;28;20074;-69
2022/03/16 11:05:10;;;;;;;21.77;15.00;;;12.60;99.90;;;;;;4989125;28;20262;-69
2022/03/16 11:07:38;;;;;;;22.02;15.55;;;12.60;99.90;;;;;;4986833;28;20050;-71
2022/03/16 11:10:06;;;;;;;21.45;14.30;;;12.70;99.90;;;;;;4993796;28;20109;-74
2022/03/16 11:15:18;;;;;;;22.15;14.65;;;12.90;99.90;;;;;;4979675;28;20054;-74
2022/03/16 11:17:45;;;;;;;21.88;14.60;;;12.90;99.90;;;;;;4986881;28;20046;-69
2022/03/16 11:20:12;;;;;;;23.15;15.38;;;13.00;99.90;;;;;;4993628;28;20049;-71
2022/03/16 11:26:16;;;;;;;22.17;15.27;;;12.90;99.90;;;;;;4987060;28;20051;-72
2022/03/16 11:29:09;;;;;;;25.02;16.17;;;13.30;99.90;;;;;;4977663;28;20050;-72
2022/03/16 11:31:35;;;;;;;19.95;14.25;;;13.10;99.90;;;;;;4982159;28;20042;-71
2022/03/16 11:34:08;;;;;;;22.63;14.30;;;13.10;99.90;;;;;;4970656;28;20216;-71
2022/03/16 11:36:35;;;;;;;26.55;17.35;;;13.30;99.90;;;;;;4983487;28;20109;-73
2022/03/16 11:39:02;;;;;;;24.67;17.40;;;13.30;99.90;;;;;;4971422;28;20054;-75
2022/03/16 11:41:32;;;;;;;23.38;16.48;;;13.20;99.90;;;;;;4977405;28;20080;-70
2022/03/16 11:44:16;;;;;;;24.07;14.93;;;13.50;99.90;;;;;;4969583;28;20133;-70
2022/03/16 11:46:46;;;;;;;25.75;16.58;;;13.40;99.90;;;;;;4979904;28;20035;-70
2022/03/16 11:49:11;;;;;;;22.20;14.85;;;13.50;99.90;;;;;;4982551;28;20066;-69
2022/03/16 11:51:43;;;;;;;32.08;21.13;;;13.50;99.90;;;;;;4963016;28;20047;-70
2022/03/16 11:54:09;;;;;;;29.52;19.60;;;13.60;99.90;;;;;;4944533;28;20048;-71
2022/03/16 11:56:35;;;;;;;29.98;19.75;;;13.60;99.90;;;;;;4981207;28;20598;-73
2022/03/16 11:59:23;;;;;;;23.58;16.20;;;13.60;99.90;;;;;;4989690;28;20569;-70
2022/03/16 12:02:01;;;;;;;20.92;13.00;;;13.70;99.90;;;;;;4978968;28;20493;-70
2022/03/16 12:04:35;;;;;;;18.52;11.85;;;14.00;99.90;;;;;;4966147;28;20110;-70
2022/03/16 12:07:16;;;;;;;20.20;12.60;;;14.00;99.90;;;;;;4976688;28;20050;-70
2022/03/16 12:09:53;;;;;;;17.65;11.48;;;14.10;99.90;;;;;;4966463;28;20047;-70
2022/03/16 12:15:15;;;;;;;20.63;14.13;;;14.30;99.90;;;;;;4977800;28;20053;-71
2022/03/16 12:18:01;;;;;;;18.90;13.15;;;14.40;99.90;;;;;;4955824;28;20097;-71
2022/03/16 12:20:36;;;;;;;18.92;13.07;;;14.50;99.90;;;;;;4974388;28;20061;-71
2022/03/16 12:23:10;;;;;;;20.38;13.43;;;14.80;99.90;;;;;;4975700;28;20621;-71
2022/03/16 12:25:39;;;;;;;23.98;14.10;;;14.80;99.90;;;;;;4982445;28;20439;-71
2022/03/16 12:31:08;;;;;;;20.20;13.23;;;15.00;99.90;;;;;;4981596;28;20053;-70
2022/03/16 12:33:39;;;;;;;22.90;14.38;;;15.00;99.90;;;;;;4977246;28;20470;-70
2022/03/16 12:36:11;;;;;;;25.58;14.52;;;15.10;99.90;;;;;;4980909;28;20504;-69
2022/03/16 12:38:39;;;;;;;19.05;13.35;;;15.20;99.90;;;;;;4966490;28;20050;-68
2022/03/16 12:43:57;;;;;;;22.92;14.52;;;15.40;99.90;;;;;;4966715;28;20081;-70
2022/03/16 12:46:30;;;;;;;23.85;16.23;;;15.40;99.90;;;;;;4974312;28;20422;-70
2022/03/16 12:49:00;;;;;;;26.55;15.77;;;15.50;99.90;;;;;;4967241;28;20051;-70
2022/03/16 12:51:56;;;;;;;20.58;13.20;;;15.70;99.90;;;;;;4975695;28;20057;-69
2022/03/16 12:54:31;;;;;;;20.40;14.13;;;16.00;99.90;;;;;;4956013;28;20389;-71
2022/03/16 12:57:05;;;;;;;22.60;14.88;;;16.20;99.90;;;;;;4961450;28;20050;-67
2022/03/16 12:59:32;;;;;;;21.40;13.52;;;16.80;99.90;;;;;;4946101;28;20074;-76